Sunfish Lake, Minnesota
Current Conditions -  °F | °C
As of 6:10 PM on Wednesday 28 Jan 2015 (Local Time) from KSGS Reporting Station
Haze Haze  
Wind Chill: 27°   Ceiling: Unl
Heat Index: 32°   Visibility: 5mi
Dew Point: 27°   Wind: 5mph
Humidity: 83%   Direction: 130°SE
Pressure: 29.81"   Gusts: NA
Location:  44.821°N, 93.0762°W
Report Text: KSGS 290010Z AUTO 13004KT 5SM HZ CLR 00/M03 A2981 RMK AO2 T00001026
Loading
Personal Weather Stations






























Interactive Weather Map New forecast layout! Learn more

10-Day Weather Forecast

Advertisements
Track Severe Weather on mobile